sensor_id;sensor_type;location;lat;lon;timestamp;P1;durP1;ratioP1;P2;durP2;ratioP2
15287;SDS011;7745;48.708;9.026;2023-04-22T00:01:20;2.30;;;1.70;;
15287;SDS011;7745;48.708;9.026;2023-04-22T00:03:48;2.33;;;1.70;;
15287;SDS011;7745;48.708;9.026;2023-04-22T00:06:15;3.73;;;1.50;;
15287;SDS011;7745;48.708;9.026;2023-04-22T00:08:42;2.50;;;1.70;;
15287;SDS011;7745;48.708;9.026;2023-04-22T00:11:09;2.67;;;1.70;;
15287;SDS011;7745;48.708;9.026;2023-04-22T00:13:35;3.47;;;1.73;;
15287;SDS011;7745;48.708;9.026;2023-04-22T00:16:04;5.60;;;1.87;;
15287;SDS011;7745;48.708;9.026;2023-04-22T00:18:32;3.97;;;1.57;;
15287;SDS011;7745;48.708;9.026;2023-04-22T00:21:00;1.50;;;1.40;;
15287;SDS011;7745;48.708;9.026;2023-04-22T00:23:26;4.77;;;1.70;;
15287;SDS011;7745;48.708;9.026;2023-04-22T00:25:53;2.63;;;1.77;;
15287;SDS011;7745;48.708;9.026;2023-04-22T00:28:20;3.53;;;1.80;;
15287;SDS011;7745;48.708;9.026;2023-04-22T00:30:47;3.17;;;2.00;;
15287;SDS011;7745;48.708;9.026;2023-04-22T00:33:15;2.70;;;1.70;;
15287;SDS011;7745;48.708;9.026;2023-04-22T00:35:41;3.53;;;1.77;;
15287;SDS011;7745;48.708;9.026;2023-04-22T00:38:10;2.10;;;1.80;;
15287;SDS011;7745;48.708;9.026;2023-04-22T00:40:36;3.00;;;1.57;;
15287;SDS011;7745;48.708;9.026;2023-04-22T00:43:03;2.57;;;2.20;;
15287;SDS011;7745;48.708;9.026;2023-04-22T00:45:30;1.90;;;1.80;;
15287;SDS011;7745;48.708;9.026;2023-04-22T00:47:57;2.00;;;1.77;;
15287;SDS011;7745;48.708;9.026;2023-04-22T00:50:26;1.93;;;1.80;;
15287;SDS011;7745;48.708;9.026;2023-04-22T00:52:52;3.40;;;1.90;;
15287;SDS011;7745;48.708;9.026;2023-04-22T00:55:19;2.40;;;1.83;;
15287;SDS011;7745;48.708;9.026;2023-04-22T00:57:46;3.23;;;2.10;;
15287;SDS011;7745;48.708;9.026;2023-04-22T01:00:16;3.53;;;2.00;;
15287;SDS011;7745;48.708;9.026;2023-04-22T01:02:44;3.63;;;1.90;;
15287;SDS011;7745;48.708;9.026;2023-04-22T01:05:11;2.10;;;1.90;;
15287;SDS011;7745;48.708;9.026;2023-04-22T01:07:40;3.83;;;1.80;;
15287;SDS011;7745;48.708;9.026;2023-04-22T01:10:07;3.57;;;2.20;;
15287;SDS011;7745;48.708;9.026;2023-04-22T01:12:34;1.90;;;1.80;;
15287;SDS011;7745;48.708;9.026;2023-04-22T01:15:01;4.17;;;1.80;;
15287;SDS011;7745;48.708;9.026;2023-04-22T01:17:27;6.30;;;2.13;;
15287;SDS011;7745;48.708;9.026;2023-04-22T01:19:55;2.63;;;1.70;;
15287;SDS011;7745;48.708;9.026;2023-04-22T01:22:23;2.80;;;1.90;;
15287;SDS011;7745;48.708;9.026;2023-04-22T01:24:53;2.90;;;2.00;;
15287;SDS011;7745;48.708;9.026;2023-04-22T01:27:20;2.10;;;1.90;;
15287;SDS011;7745;48.708;9.026;2023-04-22T01:29:47;3.43;;;1.90;;
15287;SDS011;7745;48.708;9.026;2023-04-22T01:32:14;4.60;;;2.10;;
15287;SDS011;7745;48.708;9.026;2023-04-22T01:34:40;2.87;;;2.30;;
15287;SDS011;7745;48.708;9.026;2023-04-22T01:37:07;3.20;;;2.10;;
15287;SDS011;7745;48.708;9.026;2023-04-22T01:39:34;2.83;;;1.97;;
15287;SDS011;7745;48.708;9.026;2023-04-22T01:42:02;2.20;;;2.00;;
15287;SDS011;7745;48.708;9.026;2023-04-22T01:44:29;2.97;;;2.50;;
15287;SDS011;7745;48.708;9.026;2023-04-22T01:46:56;2.37;;;1.80;;
15287;SDS011;7745;48.708;9.026;2023-04-22T01:49:23;2.77;;;2.27;;
15287;SDS011;7745;48.708;9.026;2023-04-22T01:51:49;2.40;;;2.20;;
15287;SDS011;7745;48.708;9.026;2023-04-22T01:54:16;2.23;;;1.93;;
15287;SDS011;7745;48.708;9.026;2023-04-22T01:56:47;2.33;;;2.13;;
15287;SDS011;7745;48.708;9.026;2023-04-22T01:59:17;4.23;;;2.40;;
15287;SDS011;7745;48.708;9.026;2023-04-22T02:01:43;3.77;;;2.30;;
15287;SDS011;7745;48.708;9.026;2023-04-22T02:04:10;4.13;;;2.30;;
15287;SDS011;7745;48.708;9.026;2023-04-22T02:06:37;2.57;;;2.10;;
15287;SDS011;7745;48.708;9.026;2023-04-22T02:09:04;2.93;;;2.20;;
15287;SDS011;7745;48.708;9.026;2023-04-22T02:11:30;5.23;;;2.30;;
15287;SDS011;7745;48.708;9.026;2023-04-22T02:13:57;2.97;;;2.50;;
15287;SDS011;7745;48.708;9.026;2023-04-22T02:16:26;2.87;;;2.57;;
15287;SDS011;7745;48.708;9.026;2023-04-22T02:18:52;4.63;;;2.17;;
15287;SDS011;7745;48.708;9.026;2023-04-22T02:21:19;3.63;;;2.37;;
15287;SDS011;7745;48.708;9.026;2023-04-22T02:23:46;4.13;;;2.10;;
15287;SDS011;7745;48.708;9.026;2023-04-22T02:26:13;2.90;;;2.33;;
15287;SDS011;7745;48.708;9.026;2023-04-22T02:28:39;3.77;;;2.43;;
15287;SDS011;7745;48.708;9.026;2023-04-22T02:31:06;2.27;;;2.00;;
15287;SDS011;7745;48.708;9.026;2023-04-22T02:33:34;2.90;;;2.20;;
15287;SDS011;7745;48.708;9.026;2023-04-22T02:36:01;3.23;;;2.30;;
15287;SDS011;7745;48.708;9.026;2023-04-22T02:38:28;3.70;;;2.13;;
15287;SDS011;7745;48.708;9.026;2023-04-22T02:40:55;2.90;;;2.60;;
15287;SDS011;7745;48.708;9.026;2023-04-22T02:43:22;2.40;;;2.20;;
15287;SDS011;7745;48.708;9.026;2023-04-22T02:45:48;4.77;;;2.70;;
15287;SDS011;7745;48.708;9.026;2023-04-22T02:48:15;5.00;;;2.60;;
15287;SDS011;7745;48.708;9.026;2023-04-22T02:50:43;2.67;;;2.30;;
15287;SDS011;7745;48.708;9.026;2023-04-22T02:53:10;2.70;;;2.30;;
15287;SDS011;7745;48.708;9.026;2023-04-22T02:55:37;5.30;;;3.00;;
15287;SDS011;7745;48.708;9.026;2023-04-22T02:58:04;3.97;;;2.87;;
15287;SDS011;7745;48.708;9.026;2023-04-22T03:00:32;2.57;;;2.37;;
15287;SDS011;7745;48.708;9.026;2023-04-22T03:02:59;3.57;;;2.70;;
15287;SDS011;7745;48.708;9.026;2023-04-22T03:05:26;2.90;;;2.47;;
15287;SDS011;7745;48.708;9.026;2023-04-22T03:07:54;3.40;;;2.30;;
15287;SDS011;7745;48.708;9.026;2023-04-22T03:10:21;3.40;;;2.70;;
15287;SDS011;7745;48.708;9.026;2023-04-22T03:12:48;2.50;;;2.30;;
15287;SDS011;7745;48.708;9.026;2023-04-22T03:15:15;2.80;;;2.37;;
15287;SDS011;7745;48.708;9.026;2023-04-22T03:17:41;3.07;;;2.70;;
15287;SDS011;7745;48.708;9.026;2023-04-22T03:20:08;5.80;;;2.80;;
15287;SDS011;7745;48.708;9.026;2023-04-22T03:22:36;4.73;;;2.43;;
15287;SDS011;7745;48.708;9.026;2023-04-22T03:25:04;5.47;;;2.53;;
15287;SDS011;7745;48.708;9.026;2023-04-22T03:27:32;4.03;;;2.60;;
15287;SDS011;7745;48.708;9.026;2023-04-22T03:29:58;4.47;;;2.93;;
15287;SDS011;7745;48.708;9.026;2023-04-22T03:32:25;5.77;;;2.60;;
15287;SDS011;7745;48.708;9.026;2023-04-22T03:34:52;3.00;;;2.70;;
15287;SDS011;7745;48.708;9.026;2023-04-22T03:37:19;2.53;;;2.30;;
15287;SDS011;7745;48.708;9.026;2023-04-22T03:39:45;4.20;;;2.50;;
15287;SDS011;7745;48.708;9.026;2023-04-22T03:42:13;6.90;;;3.00;;
15287;SDS011;7745;48.708;9.026;2023-04-22T03:44:40;3.07;;;2.63;;
15287;SDS011;7745;48.708;9.026;2023-04-22T03:47:07;3.47;;;2.67;;
15287;SDS011;7745;48.708;9.026;2023-04-22T03:49:34;3.97;;;2.77;;
15287;SDS011;7745;48.708;9.026;2023-04-22T03:52:01;4.23;;;2.63;;
15287;SDS011;7745;48.708;9.026;2023-04-22T03:54:28;2.73;;;2.33;;
15287;SDS011;7745;48.708;9.026;2023-04-22T03:56:55;5.73;;;2.50;;
15287;SDS011;7745;48.708;9.026;2023-04-22T03:59:23;3.13;;;2.83;;
15287;SDS011;7745;48.708;9.026;2023-04-22T04:01:50;2.90;;;2.60;;
15287;SDS011;7745;48.708;9.026;2023-04-22T04:04:17;2.73;;;2.53;;
15287;SDS011;7745;48.708;9.026;2023-04-22T04:06:44;3.67;;;2.40;;
15287;SDS011;7745;48.708;9.026;2023-04-22T04:09:11;4.00;;;2.53;;
15287;SDS011;7745;48.708;9.026;2023-04-22T04:11:38;3.70;;;2.93;;
15287;SDS011;7745;48.708;9.026;2023-04-22T04:14:04;2.90;;;2.60;;
15287;SDS011;7745;48.708;9.026;2023-04-22T04:16:33;4.17;;;2.90;;
15287;SDS011;7745;48.708;9.026;2023-04-22T04:19:00;2.87;;;2.57;;
15287;SDS011;7745;48.708;9.026;2023-04-22T04:21:26;4.70;;;2.93;;
15287;SDS011;7745;48.708;9.026;2023-04-22T04:23:53;5.27;;;3.13;;
15287;SDS011;7745;48.708;9.026;2023-04-22T04:26:20;3.40;;;2.57;;
15287;SDS011;7745;48.708;9.026;2023-04-22T04:28:47;4.73;;;2.77;;
15287;SDS011;7745;48.708;9.026;2023-04-22T04:31:14;3.73;;;2.80;;
15287;SDS011;7745;48.708;9.026;2023-04-22T04:33:42;3.67;;;3.17;;
15287;SDS011;7745;48.708;9.026;2023-04-22T04:36:10;4.57;;;3.60;;
15287;SDS011;7745;48.708;9.026;2023-04-22T04:38:37;4.10;;;3.10;;
15287;SDS011;7745;48.708;9.026;2023-04-22T04:41:04;3.33;;;3.00;;
15287;SDS011;7745;48.708;9.026;2023-04-22T04:43:32;3.50;;;2.67;;
15287;SDS011;7745;48.708;9.026;2023-04-22T04:45:59;4.50;;;3.20;;
15287;SDS011;7745;48.708;9.026;2023-04-22T04:48:27;3.40;;;3.00;;
15287;SDS011;7745;48.708;9.026;2023-04-22T04:50:55;3.27;;;2.97;;
15287;SDS011;7745;48.708;9.026;2023-04-22T04:53:23;4.63;;;3.07;;
15287;SDS011;7745;48.708;9.026;2023-04-22T04:55:49;5.13;;;2.80;;
15287;SDS011;7745;48.708;9.026;2023-04-22T04:58:16;2.87;;;2.67;;
15287;SDS011;7745;48.708;9.026;2023-04-22T05:00:43;3.73;;;3.33;;
15287;SDS011;7745;48.708;9.026;2023-04-22T05:03:09;3.67;;;3.37;;
15287;SDS011;7745;48.708;9.026;2023-04-22T05:05:36;7.37;;;3.50;;
15287;SDS011;7745;48.708;9.026;2023-04-22T05:08:04;3.73;;;2.90;;
15287;SDS011;7745;48.708;9.026;2023-04-22T05:10:31;4.67;;;2.90;;
15287;SDS011;7745;48.708;9.026;2023-04-22T05:12:58;5.70;;;3.30;;
15287;SDS011;7745;48.708;9.026;2023-04-22T05:15:24;5.23;;;3.13;;
15287;SDS011;7745;48.708;9.026;2023-04-22T05:17:52;5.30;;;2.97;;
15287;SDS011;7745;48.708;9.026;2023-04-22T05:20:19;3.77;;;2.70;;
15287;SDS011;7745;48.708;9.026;2023-04-22T05:22:46;4.60;;;3.27;;
15287;SDS011;7745;48.708;9.026;2023-04-22T05:25:14;4.47;;;3.23;;
15287;SDS011;7745;48.708;9.026;2023-04-22T05:27:41;4.20;;;3.43;;
15287;SDS011;7745;48.708;9.026;2023-04-22T05:30:08;5.67;;;3.20;;
15287;SDS011;7745;48.708;9.026;2023-04-22T05:32:35;5.87;;;3.40;;
15287;SDS011;7745;48.708;9.026;2023-04-22T05:35:02;3.77;;;3.27;;
15287;SDS011;7745;48.708;9.026;2023-04-22T05:37:29;6.17;;;3.63;;
15287;SDS011;7745;48.708;9.026;2023-04-22T05:39:56;7.07;;;3.63;;
15287;SDS011;7745;48.708;9.026;2023-04-22T05:42:24;4.40;;;3.40;;
15287;SDS011;7745;48.708;9.026;2023-04-22T05:44:51;4.13;;;3.40;;
15287;SDS011;7745;48.708;9.026;2023-04-22T05:47:17;5.17;;;3.43;;
15287;SDS011;7745;48.708;9.026;2023-04-22T05:49:44;3.73;;;3.30;;
15287;SDS011;7745;48.708;9.026;2023-04-22T05:52:11;6.70;;;3.40;;
15287;SDS011;7745;48.708;9.026;2023-04-22T05:54:38;6.90;;;3.83;;
15287;SDS011;7745;48.708;9.026;2023-04-22T05:57:04;7.60;;;3.40;;
15287;SDS011;7745;48.708;9.026;2023-04-22T05:59:33;5.07;;;3.50;;
15287;SDS011;7745;48.708;9.026;2023-04-22T06:01:59;4.23;;;3.20;;
15287;SDS011;7745;48.708;9.026;2023-04-22T06:04:26;16.77;;;3.83;;
15287;SDS011;7745;48.708;9.026;2023-04-22T06:06:53;6.07;;;3.47;;
15287;SDS011;7745;48.708;9.026;2023-04-22T06:09:20;9.40;;;3.70;;
15287;SDS011;7745;48.708;9.026;2023-04-22T06:11:47;8.07;;;4.00;;
15287;SDS011;7745;48.708;9.026;2023-04-22T06:14:14;9.83;;;3.67;;
15287;SDS011;7745;48.708;9.026;2023-04-22T06:16:42;4.93;;;3.37;;
15287;SDS011;7745;48.708;9.026;2023-04-22T06:19:09;6.63;;;3.60;;
15287;SDS011;7745;48.708;9.026;2023-04-22T06:21:36;6.30;;;4.20;;
15287;SDS011;7745;48.708;9.026;2023-04-22T06:24:04;5.20;;;4.23;;
15287;SDS011;7745;48.708;9.026;2023-04-22T06:26:31;5.13;;;4.50;;
15287;SDS011;7745;48.708;9.026;2023-04-22T06:28:58;6.03;;;4.77;;
15287;SDS011;7745;48.708;9.026;2023-04-22T06:31:26;5.33;;;4.43;;
15287;SDS011;7745;48.708;9.026;2023-04-22T06:33:54;6.17;;;5.57;;
15287;SDS011;7745;48.708;9.026;2023-04-22T06:36:22;6.93;;;5.50;;
15287;SDS011;7745;48.708;9.026;2023-04-22T06:38:48;6.13;;;4.50;;
15287;SDS011;7745;48.708;9.026;2023-04-22T06:41:15;5.63;;;4.63;;
15287;SDS011;7745;48.708;9.026;2023-04-22T06:43:42;7.27;;;5.03;;
15287;SDS011;7745;48.708;9.026;2023-04-22T06:46:10;6.17;;;5.27;;
15287;SDS011;7745;48.708;9.026;2023-04-22T06:48:37;8.83;;;5.43;;
15287;SDS011;7745;48.708;9.026;2023-04-22T06:51:05;7.97;;;4.87;;
15287;SDS011;7745;48.708;9.026;2023-04-22T06:53:32;6.60;;;4.00;;
15287;SDS011;7745;48.708;9.026;2023-04-22T06:55:59;5.57;;;4.40;;
15287;SDS011;7745;48.708;9.026;2023-04-22T06:58:26;5.23;;;4.70;;
15287;SDS011;7745;48.708;9.026;2023-04-22T07:00:52;5.23;;;4.73;;
15287;SDS011;7745;48.708;9.026;2023-04-22T07:03:19;6.70;;;4.77;;
15287;SDS011;7745;48.708;9.026;2023-04-22T07:05:46;5.93;;;4.67;;
15287;SDS011;7745;48.708;9.026;2023-04-22T07:08:14;8.00;;;4.70;;
15287;SDS011;7745;48.708;9.026;2023-04-22T07:10:41;5.90;;;4.70;;
15287;SDS011;7745;48.708;9.026;2023-04-22T07:13:08;4.97;;;4.40;;
15287;SDS011;7745;48.708;9.026;2023-04-22T07:15:34;7.63;;;5.07;;
15287;SDS011;7745;48.708;9.026;2023-04-22T07:18:01;4.47;;;4.07;;
15287;SDS011;7745;48.708;9.026;2023-04-22T07:20:28;4.80;;;4.40;;
15287;SDS011;7745;48.708;9.026;2023-04-22T07:22:55;6.27;;;4.50;;
15287;SDS011;7745;48.708;9.026;2023-04-22T07:25:23;5.10;;;4.60;;
15287;SDS011;7745;48.708;9.026;2023-04-22T07:27:50;10.60;;;5.37;;
15287;SDS011;7745;48.708;9.026;2023-04-22T07:30:16;6.37;;;4.87;;
15287;SDS011;7745;48.708;9.026;2023-04-22T07:32:43;4.83;;;4.00;;
15287;SDS011;7745;48.708;9.026;2023-04-22T07:35:10;5.10;;;4.53;;
15287;SDS011;7745;48.708;9.026;2023-04-22T07:37:37;6.03;;;4.37;;
15287;SDS011;7745;48.708;9.026;2023-04-22T07:40:04;6.97;;;4.40;;
15287;SDS011;7745;48.708;9.026;2023-04-22T07:42:37;5.10;;;3.97;;
15287;SDS011;7745;48.708;9.026;2023-04-22T07:45:04;5.17;;;4.67;;
15287;SDS011;7745;48.708;9.026;2023-04-22T07:47:32;5.53;;;3.90;;
15287;SDS011;7745;48.708;9.026;2023-04-22T07:49:59;4.27;;;3.87;;
15287;SDS011;7745;48.708;9.026;2023-04-22T07:52:25;4.87;;;4.40;;
15287;SDS011;7745;48.708;9.026;2023-04-22T07:54:53;5.73;;;4.30;;
15287;SDS011;7745;48.708;9.026;2023-04-22T07:57:20;6.17;;;3.83;;
15287;SDS011;7745;48.708;9.026;2023-04-22T07:59:50;6.47;;;3.77;;
15287;SDS011;7745;48.708;9.026;2023-04-22T08:02:17;4.40;;;3.40;;
15287;SDS011;7745;48.708;9.026;2023-04-22T08:04:44;4.20;;;3.80;;
15287;SDS011;7745;48.708;9.026;2023-04-22T08:07:10;5.57;;;3.40;;
15287;SDS011;7745;48.708;9.026;2023-04-22T08:09:37;4.77;;;3.37;;
15287;SDS011;7745;48.708;9.026;2023-04-22T08:12:04;4.10;;;3.10;;
15287;SDS011;7745;48.708;9.026;2023-04-22T08:14:31;3.57;;;3.27;;
15287;SDS011;7745;48.708;9.026;2023-04-22T08:16:59;4.30;;;3.33;;
15287;SDS011;7745;48.708;9.026;2023-04-22T08:19:26;4.73;;;3.37;;
15287;SDS011;7745;48.708;9.026;2023-04-22T08:21:52;5.30;;;3.40;;
15287;SDS011;7745;48.708;9.026;2023-04-22T08:24:19;3.57;;;3.03;;
15287;SDS011;7745;48.708;9.026;2023-04-22T08:26:46;5.77;;;3.57;;
15287;SDS011;7745;48.708;9.026;2023-04-22T08:29:12;5.37;;;3.00;;
15287;SDS011;7745;48.708;9.026;2023-04-22T08:31:40;3.30;;;3.00;;
15287;SDS011;7745;48.708;9.026;2023-04-22T08:34:08;4.20;;;2.80;;
15287;SDS011;7745;48.708;9.026;2023-04-22T08:36:35;2.70;;;2.47;;
15287;SDS011;7745;48.708;9.026;2023-04-22T08:39:02;3.73;;;2.60;;
15287;SDS011;7745;48.708;9.026;2023-04-22T08:41:29;3.17;;;2.40;;
15287;SDS011;7745;48.708;9.026;2023-04-22T08:43:58;2.67;;;2.43;;
15287;SDS011;7745;48.708;9.026;2023-04-22T08:46:35;4.40;;;2.70;;
15287;SDS011;7745;48.708;9.026;2023-04-22T08:49:05;3.30;;;3.00;;
15287;SDS011;7745;48.708;9.026;2023-04-22T08:51:40;3.77;;;2.40;;
15287;SDS011;7745;48.708;9.026;2023-04-22T08:54:48;3.63;;;2.70;;
15287;SDS011;7745;48.708;9.026;2023-04-22T08:56:59;2.50;;;2.30;;
15287;SDS011;7745;48.708;9.026;2023-04-22T09:03:04;2.63;;;2.03;;
15287;SDS011;7745;48.708;9.026;2023-04-22T09:05:40;5.07;;;2.50;;
15287;SDS011;7745;48.708;9.026;2023-04-22T09:08:18;2.90;;;2.00;;
15287;SDS011;7745;48.708;9.026;2023-04-22T09:10:46;2.43;;;2.10;;
15287;SDS011;7745;48.708;9.026;2023-04-22T09:13:13;5.77;;;2.27;;
15287;SDS011;7745;48.708;9.026;2023-04-22T09:15:40;2.50;;;2.20;;
15287;SDS011;7745;48.708;9.026;2023-04-22T09:18:08;2.13;;;1.90;;
15287;SDS011;7745;48.708;9.026;2023-04-22T09:20:35;4.23;;;2.10;;
15287;SDS011;7745;48.708;9.026;2023-04-22T09:23:03;2.80;;;1.93;;
15287;SDS011;7745;48.708;9.026;2023-04-22T09:25:31;2.93;;;2.03;;
15287;SDS011;7745;48.708;9.026;2023-04-22T09:27:59;4.90;;;1.73;;
15287;SDS011;7745;48.708;9.026;2023-04-22T09:30:27;2.83;;;1.53;;
15287;SDS011;7745;48.708;9.026;2023-04-22T09:32:56;2.60;;;1.67;;
15287;SDS011;7745;48.708;9.026;2023-04-22T09:35:27;2.67;;;1.60;;
15287;SDS011;7745;48.708;9.026;2023-04-22T09:37:55;4.60;;;1.63;;
15287;SDS011;7745;48.708;9.026;2023-04-22T09:40:28;4.37;;;1.30;;
15287;SDS011;7745;48.708;9.026;2023-04-22T09:43:04;2.93;;;1.77;;
15287;SDS011;7745;48.708;9.026;2023-04-22T10:15:29;3.75;;;1.35;;
15287;SDS011;7745;48.708;9.026;2023-04-22T10:24:24;2.38;;;1.50;;
15287;SDS011;7745;48.708;9.026;2023-04-22T10:55:54;2.08;;;1.13;;
15287;SDS011;7745;48.708;9.026;2023-04-22T11:15:54;1.65;;;1.20;;
15287;SDS011;7745;48.708;9.026;2023-04-22T11:18:25;3.10;;;1.20;;
15287;SDS011;7745;48.708;9.026;2023-04-22T11:21:01;2.35;;;1.20;;
15287;SDS011;7745;48.708;9.026;2023-04-22T11:23:30;2.53;;;1.40;;
15287;SDS011;7745;48.708;9.026;2023-04-22T11:25:58;3.03;;;1.20;;
15287;SDS011;7745;48.708;9.026;2023-04-22T11:28:26;4.13;;;1.38;;
15287;SDS011;7745;48.708;9.026;2023-04-22T11:31:01;3.05;;;1.35;;
15287;SDS011;7745;48.708;9.026;2023-04-22T11:33:30;4.13;;;1.30;;
15287;SDS011;7745;48.708;9.026;2023-04-22T11:35:58;5.25;;;1.63;;
15287;SDS011;7745;48.708;9.026;2023-04-22T11:38:25;4.15;;;1.52;;
15287;SDS011;7745;48.708;9.026;2023-04-22T11:40:57;2.38;;;1.50;;
15287;SDS011;7745;48.708;9.026;2023-04-22T11:43:44;2.97;;;1.67;;
15287;SDS011;7745;48.708;9.026;2023-04-22T11:46:13;7.25;;;1.55;;
15287;SDS011;7745;48.708;9.026;2023-04-22T11:48:40;2.58;;;1.40;;
15287;SDS011;7745;48.708;9.026;2023-04-22T11:51:07;4.32;;;1.70;;
15287;SDS011;7745;48.708;9.026;2023-04-22T11:53:35;2.38;;;1.50;;
15287;SDS011;7745;48.708;9.026;2023-04-22T11:56:03;3.38;;;1.50;;
15287;SDS011;7745;48.708;9.026;2023-04-22T11:58:30;3.60;;;1.65;;
15287;SDS011;7745;48.708;9.026;2023-04-22T12:00:57;1.65;;;1.23;;
15287;SDS011;7745;48.708;9.026;2023-04-22T12:03:26;1.90;;;1.40;;
15287;SDS011;7745;48.708;9.026;2023-04-22T12:05:54;3.00;;;1.40;;
15287;SDS011;7745;48.708;9.026;2023-04-22T12:08:23;6.28;;;1.65;;
15287;SDS011;7745;48.708;9.026;2023-04-22T12:10:51;5.95;;;1.60;;
15287;SDS011;7745;48.708;9.026;2023-04-22T12:13:20;3.67;;;1.55;;
15287;SDS011;7745;48.708;9.026;2023-04-22T12:15:51;3.72;;;1.40;;
15287;SDS011;7745;48.708;9.026;2023-04-22T12:18:28;4.35;;;1.48;;
15287;SDS011;7745;48.708;9.026;2023-04-22T12:20:57;2.65;;;1.60;;
15287;SDS011;7745;48.708;9.026;2023-04-22T12:23:26;2.75;;;1.17;;
15287;SDS011;7745;48.708;9.026;2023-04-22T12:25:53;2.95;;;1.50;;
15287;SDS011;7745;48.708;9.026;2023-04-22T12:28:20;2.90;;;1.20;;
15287;SDS011;7745;48.708;9.026;2023-04-22T12:30:47;2.20;;;1.20;;
15287;SDS011;7745;48.708;9.026;2023-04-22T12:33:14;4.03;;;1.40;;
15287;SDS011;7745;48.708;9.026;2023-04-22T12:35:42;1.30;;;1.00;;
15287;SDS011;7745;48.708;9.026;2023-04-22T12:38:11;3.28;;;1.30;;
15287;SDS011;7745;48.708;9.026;2023-04-22T12:40:37;3.38;;;1.10;;
15287;SDS011;7745;48.708;9.026;2023-04-22T12:43:04;3.35;;;1.60;;
15287;SDS011;7745;48.708;9.026;2023-04-22T12:45:31;3.03;;;1.40;;
15287;SDS011;7745;48.708;9.026;2023-04-22T12:47:58;6.60;;;1.40;;
15287;SDS011;7745;48.708;9.026;2023-04-22T12:50:25;1.90;;;1.33;;
15287;SDS011;7745;48.708;9.026;2023-04-22T12:52:53;3.10;;;1.08;;
15287;SDS011;7745;48.708;9.026;2023-04-22T12:55:20;3.50;;;1.20;;
15287;SDS011;7745;48.708;9.026;2023-04-22T12:57:48;6.18;;;1.90;;
15287;SDS011;7745;48.708;9.026;2023-04-22T13:00:15;4.53;;;1.80;;
15287;SDS011;7745;48.708;9.026;2023-04-22T13:02:43;2.85;;;1.40;;
15287;SDS011;7745;48.708;9.026;2023-04-22T13:05:11;2.67;;;1.50;;
15287;SDS011;7745;48.708;9.026;2023-04-22T13:07:39;4.38;;;1.20;;
15287;SDS011;7745;48.708;9.026;2023-04-22T13:10:08;3.65;;;1.40;;
15287;SDS011;7745;48.708;9.026;2023-04-22T13:12:36;2.95;;;1.45;;
15287;SDS011;7745;48.708;9.026;2023-04-22T13:15:04;3.28;;;1.50;;
15287;SDS011;7745;48.708;9.026;2023-04-22T13:17:32;3.85;;;1.70;;
15287;SDS011;7745;48.708;9.026;2023-04-22T13:19:59;3.50;;;1.60;;
15287;SDS011;7745;48.708;9.026;2023-04-22T13:22:26;3.42;;;1.50;;
15287;SDS011;7745;48.708;9.026;2023-04-22T13:24:52;3.53;;;1.40;;
15287;SDS011;7745;48.708;9.026;2023-04-22T13:27:21;2.75;;;1.52;;
15287;SDS011;7745;48.708;9.026;2023-04-22T13:29:47;3.40;;;1.63;;
15287;SDS011;7745;48.708;9.026;2023-04-22T13:32:14;1.60;;;1.25;;
15287;SDS011;7745;48.708;9.026;2023-04-22T13:34:41;3.50;;;1.40;;
15287;SDS011;7745;48.708;9.026;2023-04-22T13:37:10;1.80;;;1.20;;
15287;SDS011;7745;48.708;9.026;2023-04-22T13:39:39;3.63;;;1.40;;
15287;SDS011;7745;48.708;9.026;2023-04-22T13:42:05;2.47;;;1.30;;
15287;SDS011;7745;48.708;9.026;2023-04-22T13:44:34;3.38;;;1.60;;
15287;SDS011;7745;48.708;9.026;2023-04-22T13:47:02;5.03;;;1.45;;
15287;SDS011;7745;48.708;9.026;2023-04-22T13:49:29;2.60;;;1.30;;
15287;SDS011;7745;48.708;9.026;2023-04-22T13:51:56;3.00;;;1.50;;
15287;SDS011;7745;48.708;9.026;2023-04-22T13:54:23;4.45;;;1.48;;
15287;SDS011;7745;48.708;9.026;2023-04-22T13:56:51;3.47;;;1.60;;
15287;SDS011;7745;48.708;9.026;2023-04-22T13:59:18;2.55;;;1.50;;
15287;SDS011;7745;48.708;9.026;2023-04-22T14:01:46;3.25;;;1.52;;
15287;SDS011;7745;48.708;9.026;2023-04-22T14:04:13;5.32;;;1.50;;
15287;SDS011;7745;48.708;9.026;2023-04-22T14:06:40;2.80;;;1.50;;
15287;SDS011;7745;48.708;9.026;2023-04-22T14:09:07;5.10;;;1.88;;
15287;SDS011;7745;48.708;9.026;2023-04-22T14:11:34;5.90;;;1.55;;
15287;SDS011;7745;48.708;9.026;2023-04-22T14:14:01;3.03;;;1.50;;
15287;SDS011;7745;48.708;9.026;2023-04-22T14:16:27;2.22;;;1.60;;
15287;SDS011;7745;48.708;9.026;2023-04-22T14:18:56;2.00;;;1.35;;
15287;SDS011;7745;48.708;9.026;2023-04-22T14:21:23;3.47;;;1.60;;
15287;SDS011;7745;48.708;9.026;2023-04-22T14:23:50;2.78;;;1.65;;
15287;SDS011;7745;48.708;9.026;2023-04-22T14:26:17;3.58;;;1.80;;
15287;SDS011;7745;48.708;9.026;2023-04-22T14:28:44;3.65;;;1.60;;
15287;SDS011;7745;48.708;9.026;2023-04-22T14:31:10;2.60;;;1.60;;
15287;SDS011;7745;48.708;9.026;2023-04-22T14:33:39;2.63;;;1.58;;
15287;SDS011;7745;48.708;9.026;2023-04-22T14:36:07;4.00;;;1.77;;
15287;SDS011;7745;48.708;9.026;2023-04-22T14:38:34;3.88;;;1.80;;
15287;SDS011;7745;48.708;9.026;2023-04-22T14:41:01;4.43;;;1.75;;
15287;SDS011;7745;48.708;9.026;2023-04-22T14:43:29;3.58;;;1.73;;
15287;SDS011;7745;48.708;9.026;2023-04-22T14:45:58;2.58;;;1.60;;
15287;SDS011;7745;48.708;9.026;2023-04-22T14:48:24;2.80;;;1.50;;
15287;SDS011;7745;48.708;9.026;2023-04-22T14:50:54;2.53;;;1.55;;
15287;SDS011;7745;48.708;9.026;2023-04-22T14:53:23;3.35;;;1.67;;
15287;SDS011;7745;48.708;9.026;2023-04-22T14:55:50;2.25;;;1.85;;
15287;SDS011;7745;48.708;9.026;2023-04-22T14:58:17;3.08;;;1.45;;
15287;SDS011;7745;48.708;9.026;2023-04-22T15:00:43;2.47;;;1.27;;
15287;SDS011;7745;48.708;9.026;2023-04-22T15:03:11;3.58;;;1.90;;
15287;SDS011;7745;48.708;9.026;2023-04-22T15:05:38;2.30;;;1.67;;
15287;SDS011;7745;48.708;9.026;2023-04-22T15:08:05;2.75;;;1.90;;
15287;SDS011;7745;48.708;9.026;2023-04-22T15:10:33;3.58;;;1.80;;
15287;SDS011;7745;48.708;9.026;2023-04-22T15:13:00;3.47;;;1.80;;
15287;SDS011;7745;48.708;9.026;2023-04-22T15:15:27;2.63;;;1.77;;
15287;SDS011;7745;48.708;9.026;2023-04-22T15:17:54;4.30;;;1.90;;
15287;SDS011;7745;48.708;9.026;2023-04-22T15:20:21;2.78;;;1.40;;
15287;SDS011;7745;48.708;9.026;2023-04-22T15:22:47;4.32;;;1.70;;
15287;SDS011;7745;48.708;9.026;2023-04-22T15:25:16;3.13;;;1.60;;
15287;SDS011;7745;48.708;9.026;2023-04-22T15:27:44;3.20;;;2.10;;
15287;SDS011;7745;48.708;9.026;2023-04-22T15:30:12;2.97;;;1.75;;
15287;SDS011;7745;48.708;9.026;2023-04-22T15:32:39;3.40;;;1.60;;
15287;SDS011;7745;48.708;9.026;2023-04-22T15:35:06;2.85;;;1.90;;
15287;SDS011;7745;48.708;9.026;2023-04-22T15:37:35;2.13;;;1.60;;
15287;SDS011;7745;48.708;9.026;2023-04-22T15:40:02;3.30;;;1.40;;
15287;SDS011;7745;48.708;9.026;2023-04-22T15:42:31;2.97;;;1.40;;
15287;SDS011;7745;48.708;9.026;2023-04-22T15:45:00;3.80;;;1.90;;
15287;SDS011;7745;48.708;9.026;2023-04-22T15:47:38;3.45;;;1.55;;
15287;SDS011;7745;48.708;9.026;2023-04-22T15:50:07;3.10;;;1.63;;
15287;SDS011;7745;48.708;9.026;2023-04-22T15:52:35;3.65;;;1.88;;
15287;SDS011;7745;48.708;9.026;2023-04-22T15:55:04;3.92;;;2.10;;
15287;SDS011;7745;48.708;9.026;2023-04-22T15:57:31;2.38;;;1.75;;
15287;SDS011;7745;48.708;9.026;2023-04-22T16:00:01;3.70;;;1.75;;
15287;SDS011;7745;48.708;9.026;2023-04-22T16:02:31;4.47;;;1.98;;
15287;SDS011;7745;48.708;9.026;2023-04-22T16:04:58;4.90;;;1.83;;
15287;SDS011;7745;48.708;9.026;2023-04-22T16:07:24;4.78;;;1.58;;
15287;SDS011;7745;48.708;9.026;2023-04-22T16:09:54;3.42;;;1.90;;
15287;SDS011;7745;48.708;9.026;2023-04-22T16:12:21;3.97;;;1.80;;
15287;SDS011;7745;48.708;9.026;2023-04-22T16:14:48;3.88;;;1.80;;
15287;SDS011;7745;48.708;9.026;2023-04-22T16:17:16;3.20;;;1.73;;
15287;SDS011;7745;48.708;9.026;2023-04-22T16:19:44;3.90;;;1.75;;
15287;SDS011;7745;48.708;9.026;2023-04-22T16:22:13;3.17;;;1.67;;
15287;SDS011;7745;48.708;9.026;2023-04-22T16:24:40;2.33;;;1.77;;
15287;SDS011;7745;48.708;9.026;2023-04-22T16:27:06;3.70;;;1.77;;
15287;SDS011;7745;48.708;9.026;2023-04-22T16:29:33;3.38;;;1.80;;